Time;durP1;ratioP1;P1;durP2;ratioP2;P2;SDS_P1;SDS_P2;PMS_P1;PMS_P2;Temp;Humidity;BMP_temperature;BMP_pressure;BME280_temperature;BME280_humidity;BME280_pressure;Samples;Min_cycle;Max_cycle;Signal;HPM_P1;HPM_P2
2022/05/19 00:02:08;;;;;;;23.88;20.30;;;;;;;;;;5048980;28;20048;-32
2022/05/19 00:04:35;;;;;;;23.30;19.23;;;;;;;;;;5052816;28;20064;-30
2022/05/19 00:07:01;;;;;;;21.17;18.85;;;;;;;;;;5052849;28;20037;-31
2022/05/19 00:09:28;;;;;;;24.58;19.42;;;;;;;;;;5034453;28;20387;-30
2022/05/19 00:11:55;;;;;;;23.40;20.33;;;;;;;;;;5034225;28;20037;-32
2022/05/19 00:14:22;;;;;;;23.48;18.88;;;;;;;;;;5050721;28;20402;-32
2022/05/19 00:16:48;;;;;;;24.40;19.73;;;;;;;;;;5050980;28;20184;-32
2022/05/19 00:19:15;;;;;;;24.50;19.75;;;;;;;;;;5051253;28;20116;-35
2022/05/19 00:21:42;;;;;;;26.33;21.77;;;;;;;;;;5050439;28;20090;-33
2022/05/19 00:24:09;;;;;;;27.02;23.15;;;;;;;;;;5051474;28;20075;-31
2022/05/19 00:26:36;;;;;;;26.02;21.85;;;;;;;;;;5050608;28;20029;-33
2022/05/19 00:29:02;;;;;;;25.58;22.55;;;;;;;;;;5051118;28;20080;-33
2022/05/19 00:31:29;;;;;;;25.13;22.45;;;;;;;;;;5032924;28;20037;-32
2022/05/19 00:33:56;;;;;;;25.83;22.95;;;;;;;;;;5051306;28;20044;-33
2022/05/19 00:36:22;;;;;;;26.70;23.13;;;;;;;;;;5050250;28;20043;-35
2022/05/19 00:38:48;;;;;;;27.13;24.20;;;;;;;;;;5050226;28;20136;-33
2022/05/19 00:41:15;;;;;;;28.85;23.88;;;;;;;;;;5050714;28;20063;-34
2022/05/19 00:43:42;;;;;;;27.58;24.60;;;;;;;;;;5051148;28;20055;-33
2022/05/19 00:46:16;;;;;;;28.23;23.98;;;;;;;;;;5050147;28;20040;-31
2022/05/19 00:48:48;;;;;;;29.00;25.85;;;;;;;;;;5050893;28;20506;-32
2022/05/19 00:51:14;;;;;;;31.25;26.38;;;;;;;;;;5050651;28;20040;-34
2022/05/19 00:53:46;;;;;;;31.17;25.38;;;;;;;;;;5051070;28;20044;-32
2022/05/19 00:56:16;;;;;;;29.58;26.10;;;;;;;;;;5049573;28;20095;-32
2022/05/19 00:58:45;;;;;;;27.63;24.17;;;;;;;;;;5050412;28;20049;-33
2022/05/19 01:01:11;;;;;;;35.67;26.83;;;;;;;;;;5050325;28;20120;-34
2022/05/19 01:03:50;;;;;;;31.20;26.48;;;;;;;;;;5051049;28;20056;-34
2022/05/19 01:06:17;;;;;;;31.40;26.98;;;;;;;;;;5050137;28;20039;-34
2022/05/19 01:08:49;;;;;;;35.22;28.58;;;;;;;;;;5050379;28;20067;-33
2022/05/19 01:11:16;;;;;;;34.65;28.92;;;;;;;;;;5049683;28;20029;-33
2022/05/19 01:13:42;;;;;;;32.65;28.75;;;;;;;;;;5050578;28;20474;-35
2022/05/19 01:16:09;;;;;;;29.85;26.73;;;;;;;;;;5049516;28;20473;-34
2022/05/19 01:18:36;;;;;;;35.05;27.73;;;;;;;;;;5050578;28;20123;-32
2022/05/19 01:21:03;;;;;;;33.53;29.73;;;;;;;;;;5051290;28;20590;-35
2022/05/19 01:23:49;;;;;;;33.88;29.25;;;;;;;;;;5050886;28;20083;-33
2022/05/19 01:26:27;;;;;;;32.35;28.90;;;;;;;;;;5049730;28;20040;-34
2022/05/19 01:28:54;;;;;;;31.95;28.58;;;;;;;;;;5046704;28;20036;-33
2022/05/19 01:31:32;;;;;;;32.67;29.27;;;;;;;;;;5050913;28;20102;-33
2022/05/19 01:33:59;;;;;;;34.67;30.40;;;;;;;;;;5030547;28;20076;-34
2022/05/19 01:36:25;;;;;;;35.55;29.80;;;;;;;;;;5045246;28;20037;-30
2022/05/19 01:38:57;;;;;;;36.45;30.70;;;;;;;;;;5050134;28;20119;-30
2022/05/19 01:41:32;;;;;;;34.70;28.42;;;;;;;;;;5039957;28;20036;-32
2022/05/19 01:44:34;;;;;;;34.00;30.30;;;;;;;;;;5037654;28;20041;-34
2022/05/19 01:47:05;;;;;;;37.92;33.95;;;;;;;;;;4987886;28;20038;-31
2022/05/19 01:49:43;;;;;;;41.42;34.30;;;;;;;;;;5027765;28;20068;-35
2022/05/19 01:52:17;;;;;;;40.42;35.22;;;;;;;;;;5051232;28;20045;-31
2022/05/19 01:54:46;;;;;;;38.58;34.15;;;;;;;;;;5053111;28;20045;-34
2022/05/19 01:57:16;;;;;;;40.58;33.13;;;;;;;;;;5053749;28;20076;-32
2022/05/19 01:59:53;;;;;;;44.67;34.72;;;;;;;;;;5052690;28;20507;-33
2022/05/19 02:02:22;;;;;;;41.08;36.47;;;;;;;;;;5054530;28;20502;-32
2022/05/19 02:04:54;;;;;;;42.85;37.00;;;;;;;;;;5053985;28;20045;-31
2022/05/19 02:07:20;;;;;;;39.97;35.17;;;;;;;;;;5052993;28;20033;-32
2022/05/19 02:09:46;;;;;;;41.30;35.45;;;;;;;;;;5052256;28;20037;-31
2022/05/19 02:12:12;;;;;;;38.70;34.58;;;;;;;;;;5053673;28;20405;-32
2022/05/19 02:14:42;;;;;;;40.33;35.92;;;;;;;;;;5053174;28;20044;-32
2022/05/19 02:17:11;;;;;;;38.75;34.40;;;;;;;;;;5054117;28;20494;-33
2022/05/19 02:19:39;;;;;;;40.28;35.47;;;;;;;;;;5053049;28;20075;-33
2022/05/19 02:22:07;;;;;;;39.83;34.10;;;;;;;;;;5053087;28;20114;-32
2022/05/19 02:24:35;;;;;;;40.25;36.00;;;;;;;;;;5053237;28;20384;-32
2022/05/19 02:27:20;;;;;;;37.05;33.03;;;;;;;;;;5053467;28;20067;-33
2022/05/19 02:29:46;;;;;;;40.92;35.33;;;;;;;;;;5052666;28;20041;-31
2022/05/19 02:32:12;;;;;;;38.97;33.80;;;;;;;;;;5053523;28;20068;-32
2022/05/19 02:34:38;;;;;;;39.45;35.22;;;;;;;;;;5035588;28;20048;-33
2022/05/19 02:37:06;;;;;;;41.10;36.15;;;;;;;;;;5053011;28;20489;-32
2022/05/19 02:39:32;;;;;;;41.53;36.63;;;;;;;;;;5052939;28;20280;-32
2022/05/19 02:41:58;;;;;;;40.42;34.15;;;;;;;;;;5053519;28;20077;-31
2022/05/19 02:44:24;;;;;;;41.85;36.53;;;;;;;;;;5053601;28;20033;-32
2022/05/19 02:46:50;;;;;;;38.53;34.45;;;;;;;;;;5053107;28;20041;-31
2022/05/19 02:49:16;;;;;;;42.13;35.03;;;;;;;;;;5052090;28;20399;-31
2022/05/19 02:51:42;;;;;;;39.90;35.33;;;;;;;;;;5053207;28;20525;-31
2022/05/19 02:54:08;;;;;;;39.92;35.53;;;;;;;;;;5048343;28;20123;-32
2022/05/19 02:56:35;;;;;;;46.70;39.05;;;;;;;;;;5050781;28;20045;-33
2022/05/19 02:59:01;;;;;;;40.22;34.70;;;;;;;;;;5051949;28;20217;-31
2022/05/19 03:01:27;;;;;;;43.05;36.38;;;;;;;;;;5052102;28;20037;-31
2022/05/19 03:03:53;;;;;;;43.58;37.33;;;;;;;;;;5052866;28;20426;-31
2022/05/19 03:06:19;;;;;;;41.83;36.08;;;;;;;;;;5052738;28;20505;-31
2022/05/19 03:08:45;;;;;;;41.38;36.85;;;;;;;;;;5053333;28;20049;-34
2022/05/19 03:11:11;;;;;;;40.50;34.40;;;;;;;;;;5051628;28;20048;-32
2022/05/19 03:13:37;;;;;;;40.22;35.85;;;;;;;;;;5052607;28;20473;-34
2022/05/19 03:16:07;;;;;;;41.38;35.20;;;;;;;;;;5052165;28;20040;-31
2022/05/19 03:18:34;;;;;;;42.63;37.05;;;;;;;;;;5040458;28;20068;-31
2022/05/19 03:21:00;;;;;;;45.85;37.63;;;;;;;;;;5052650;28;20503;-33
2022/05/19 03:23:26;;;;;;;43.42;35.95;;;;;;;;;;5052340;28;20114;-33
2022/05/19 03:25:54;;;;;;;43.03;36.70;;;;;;;;;;5051751;28;20171;-31
2022/05/19 03:28:20;;;;;;;40.15;35.78;;;;;;;;;;5052632;28;20033;-31
2022/05/19 03:30:46;;;;;;;47.85;40.17;;;;;;;;;;5052442;28;20495;-31
2022/05/19 03:33:12;;;;;;;42.53;37.90;;;;;;;;;;5052265;28;20040;-32
2022/05/19 03:35:40;;;;;;;43.70;38.92;;;;;;;;;;5051526;28;20513;-33
2022/05/19 03:38:06;;;;;;;42.35;35.63;;;;;;;;;;5052017;28;20040;-31
2022/05/19 03:40:32;;;;;;;41.17;36.72;;;;;;;;;;5052663;28;20076;-32
2022/05/19 03:43:01;;;;;;;43.67;38.70;;;;;;;;;;5050562;28;20048;-31
2022/05/19 03:45:28;;;;;;;42.15;37.78;;;;;;;;;;5052381;28;20155;-29
2022/05/19 03:47:54;;;;;;;42.03;37.70;;;;;;;;;;5052755;28;20047;-28
2022/05/19 03:50:20;;;;;;;45.78;40.85;;;;;;;;;;5034820;28;20037;-28
2022/05/19 03:52:46;;;;;;;42.75;35.60;;;;;;;;;;5052214;28;20044;-28
2022/05/19 03:55:13;;;;;;;45.53;39.65;;;;;;;;;;5052080;28;20033;-29
2022/05/19 03:57:40;;;;;;;45.58;40.60;;;;;;;;;;5052134;28;20041;-28
2022/05/19 04:00:08;;;;;;;45.20;40.50;;;;;;;;;;5051830;28;20173;-28
2022/05/19 04:02:34;;;;;;;45.35;40.50;;;;;;;;;;5051905;28;20083;-30
2022/05/19 04:05:00;;;;;;;47.45;42.58;;;;;;;;;;5052364;28;20087;-28
2022/05/19 04:07:26;;;;;;;48.10;42.80;;;;;;;;;;5051243;28;20041;-31
2022/05/19 04:09:53;;;;;;;44.13;39.33;;;;;;;;;;5051184;28;20475;-29
2022/05/19 04:12:22;;;;;;;45.95;41.45;;;;;;;;;;5051487;28;20255;-31
2022/05/19 04:14:49;;;;;;;46.05;40.13;;;;;;;;;;5050178;28;20525;-33
2022/05/19 04:17:16;;;;;;;47.30;42.30;;;;;;;;;;5050327;28;20498;-30
2022/05/19 04:19:42;;;;;;;43.65;38.47;;;;;;;;;;5050820;28;20091;-31
2022/05/19 04:22:08;;;;;;;48.40;43.08;;;;;;;;;;5049280;28;20090;-31
2022/05/19 04:24:34;;;;;;;44.58;39.88;;;;;;;;;;5032696;28;20041;-33
2022/05/19 04:27:02;;;;;;;44.53;39.78;;;;;;;;;;5050752;28;20033;-29
2022/05/19 04:29:28;;;;;;;46.83;41.85;;;;;;;;;;5051822;28;20083;-29
2022/05/19 04:31:54;;;;;;;45.97;41.17;;;;;;;;;;5051792;28;20387;-29
2022/05/19 04:34:20;;;;;;;43.90;39.40;;;;;;;;;;5045445;28;20573;-31
2022/05/19 04:36:46;;;;;;;45.08;40.17;;;;;;;;;;5046488;28;20051;-33
2022/05/19 04:39:13;;;;;;;47.28;42.22;;;;;;;;;;5037966;28;20042;-33
2022/05/19 04:41:40;;;;;;;43.00;38.35;;;;;;;;;;5020822;28;20068;-32
2022/05/19 04:44:06;;;;;;;46.67;41.67;;;;;;;;;;5032862;28;20112;-32
2022/05/19 04:46:32;;;;;;;50.50;42.20;;;;;;;;;;5038272;28;20037;-35
2022/05/19 04:48:58;;;;;;;48.63;42.60;;;;;;;;;;5030609;28;20124;-33
2022/05/19 04:51:24;;;;;;;45.33;40.55;;;;;;;;;;5049806;28;20072;-34
2022/05/19 04:53:51;;;;;;;45.70;40.80;;;;;;;;;;5050951;28;20497;-32
2022/05/19 04:56:17;;;;;;;48.65;43.50;;;;;;;;;;5050929;28;20449;-30
2022/05/19 04:58:43;;;;;;;48.70;43.20;;;;;;;;;;5049997;28;20045;-32
2022/05/19 05:01:09;;;;;;;43.83;39.38;;;;;;;;;;5046591;28;20491;-32
2022/05/19 05:03:35;;;;;;;45.90;41.15;;;;;;;;;;5043214;28;20040;-31
2022/05/19 05:06:01;;;;;;;43.15;38.70;;;;;;;;;;5050621;28;20044;-30
2022/05/19 05:08:27;;;;;;;42.78;38.42;;;;;;;;;;5050923;28;20041;-32
2022/05/19 05:10:53;;;;;;;43.75;38.95;;;;;;;;;;5050561;28;20043;-30
2022/05/19 05:13:20;;;;;;;42.85;38.20;;;;;;;;;;5051099;28;20033;-30
2022/05/19 05:15:46;;;;;;;42.47;37.92;;;;;;;;;;5050832;28;20041;-29
2022/05/19 05:18:12;;;;;;;40.65;36.40;;;;;;;;;;5051152;28;20045;-30
2022/05/19 05:20:39;;;;;;;39.83;35.80;;;;;;;;;;5051398;28;20498;-29
2022/05/19 05:23:05;;;;;;;39.97;35.85;;;;;;;;;;5051294;28;20461;-28
2022/05/19 05:25:31;;;;;;;40.78;36.33;;;;;;;;;;5051222;28;20205;-29
2022/05/19 05:27:57;;;;;;;42.42;37.80;;;;;;;;;;5053536;28;20087;-29
2022/05/19 05:30:24;;;;;;;40.33;35.97;;;;;;;;;;5055024;28;20037;-29
2022/05/19 05:32:50;;;;;;;36.33;32.63;;;;;;;;;;5055625;28;20445;-28
2022/05/19 05:35:16;;;;;;;35.20;31.50;;;;;;;;;;5055458;28;20040;-28
2022/05/19 05:37:42;;;;;;;35.10;31.48;;;;;;;;;;5055267;28;20044;-29
2022/05/19 05:40:10;;;;;;;34.10;30.70;;;;;;;;;;5054889;28;20048;-28
2022/05/19 05:42:37;;;;;;;35.05;31.52;;;;;;;;;;5053866;28;20041;-30
2022/05/19 05:45:04;;;;;;;33.33;29.83;;;;;;;;;;5053675;28;20087;-31
2022/05/19 05:47:30;;;;;;;31.80;28.52;;;;;;;;;;5036952;28;20041;-30
2022/05/19 05:49:56;;;;;;;30.42;27.25;;;;;;;;;;5054592;28;20037;-30
2022/05/19 05:52:22;;;;;;;32.15;28.95;;;;;;;;;;5052211;28;20067;-30
2022/05/19 05:54:48;;;;;;;30.45;26.80;;;;;;;;;;5034627;28;20098;-29
2022/05/19 05:57:15;;;;;;;28.70;25.73;;;;;;;;;;5052237;28;20044;-30
2022/05/19 05:59:41;;;;;;;26.58;23.95;;;;;;;;;;5052219;28;20465;-31
2022/05/19 06:02:07;;;;;;;27.17;24.23;;;;;;;;;;5052687;28;20091;-32
2022/05/19 06:04:33;;;;;;;26.65;24.10;;;;;;;;;;5052934;28;20041;-29
2022/05/19 06:07:00;;;;;;;25.75;22.83;;;;;;;;;;5035235;28;20505;-30
2022/05/19 06:09:26;;;;;;;23.05;20.33;;;;;;;;;;5054888;28;20041;-31
2022/05/19 06:11:52;;;;;;;21.08;18.27;;;;;;;;;;5037193;28;20047;-29
2022/05/19 06:14:18;;;;;;;22.02;19.83;;;;;;;;;;5055189;28;20044;-30
2022/05/19 06:16:44;;;;;;;19.98;18.02;;;;;;;;;;5055534;28;20468;-30
2022/05/19 06:19:11;;;;;;;19.85;17.40;;;;;;;;;;5054695;28;20077;-29
2022/05/19 06:21:39;;;;;;;17.63;15.85;;;;;;;;;;5054151;28;20067;-32
2022/05/19 06:24:10;;;;;;;17.02;15.32;;;;;;;;;;5053763;28;20052;-31
2022/05/19 06:26:39;;;;;;;17.17;13.75;;;;;;;;;;5037149;28;20436;-34
2022/05/19 06:29:06;;;;;;;14.57;13.05;;;;;;;;;;5053784;28;20056;-33
2022/05/19 06:31:32;;;;;;;13.50;12.10;;;;;;;;;;5053744;28;20041;-33
2022/05/19 06:34:01;;;;;;;9.77;8.77;;;;;;;;;;5054130;28;20048;-32
2022/05/19 06:36:28;;;;;;;10.10;9.10;;;;;;;;;;5053723;28;20037;-34
2022/05/19 06:38:54;;;;;;;13.60;7.90;;;;;;;;;;5035544;28;20395;-31
2022/05/19 06:44:05;;;;;;;9.65;7.32;;;;;;;;;;5035289;28;20049;-33
2022/05/19 06:46:31;;;;;;;8.13;6.60;;;;;;;;;;5019588;28;20041;-32
2022/05/19 06:49:02;;;;;;;7.05;6.35;;;;;;;;;;5053200;28;20048;-32
2022/05/19 06:51:28;;;;;;;7.78;6.53;;;;;;;;;;5053162;28;20052;-32
2022/05/19 06:53:54;;;;;;;6.38;5.78;;;;;;;;;;5019619;28;20041;-32
2022/05/19 06:56:22;;;;;;;6.43;5.68;;;;;;;;;;5053342;28;20045;-33
2022/05/19 06:58:48;;;;;;;7.72;5.70;;;;;;;;;;5052700;28;20079;-34
2022/05/19 07:01:14;;;;;;;5.88;5.38;;;;;;;;;;5053235;28;20040;-32
2022/05/19 07:03:40;;;;;;;10.32;5.57;;;;;;;;;;5052835;28;20047;-32
2022/05/19 07:06:06;;;;;;;6.35;5.75;;;;;;;;;;5053499;28;20402;-32
2022/05/19 07:08:32;;;;;;;6.30;5.70;;;;;;;;;;5052107;28;20033;-31
2022/05/19 07:10:58;;;;;;;6.10;5.43;;;;;;;;;;5053640;28;20041;-30
2022/05/19 07:13:24;;;;;;;8.80;6.07;;;;;;;;;;5053454;28;20115;-30
2022/05/19 07:15:51;;;;;;;6.78;5.85;;;;;;;;;;5054148;28;20075;-30
2022/05/19 07:18:17;;;;;;;7.68;6.32;;;;;;;;;;5053233;28;20534;-31
2022/05/19 07:20:48;;;;;;;7.13;6.10;;;;;;;;;;5035497;28;20060;-31
2022/05/19 07:23:18;;;;;;;6.72;5.38;;;;;;;;;;5048651;28;20041;-34
2022/05/19 07:25:45;;;;;;;5.85;5.35;;;;;;;;;;5034041;28;20042;-33
2022/05/19 07:28:12;;;;;;;6.75;5.85;;;;;;;;;;5033663;28;20077;-31
2022/05/19 07:30:38;;;;;;;8.52;6.22;;;;;;;;;;5035841;28;20067;-34
2022/05/19 07:33:05;;;;;;;6.05;5.35;;;;;;;;;;5038777;28;20088;-32
2022/05/19 07:35:31;;;;;;;5.70;5.18;;;;;;;;;;5042222;28;20519;-34
2022/05/19 07:37:57;;;;;;;5.40;4.93;;;;;;;;;;5041185;28;20041;-33
2022/05/19 07:40:23;;;;;;;7.30;5.82;;;;;;;;;;5037694;28;20091;-32
2022/05/19 07:42:49;;;;;;;6.65;6.00;;;;;;;;;;5044777;28;20041;-32
2022/05/19 07:45:16;;;;;;;7.57;6.13;;;;;;;;;;5033172;28;20046;-32
2022/05/19 07:47:43;;;;;;;7.40;6.68;;;;;;;;;;5015975;28;20052;-30
2022/05/19 07:50:10;;;;;;;7.57;5.85;;;;;;;;;;5030854;28;20095;-30
2022/05/19 07:52:37;;;;;;;8.73;6.40;;;;;;;;;;5032882;28;20052;-30
2022/05/19 07:55:03;;;;;;;7.35;6.75;;;;;;;;;;5015390;28;20088;-31
2022/05/19 07:57:29;;;;;;;7.32;6.63;;;;;;;;;;5031522;28;20046;-30
2022/05/19 07:59:56;;;;;;;7.50;6.63;;;;;;;;;;5032451;28;20080;-31
2022/05/19 08:02:22;;;;;;;7.20;6.43;;;;;;;;;;5015001;28;20033;-32
2022/05/19 08:04:49;;;;;;;7.80;6.88;;;;;;;;;;5032773;28;20406;-30
2022/05/19 08:07:15;;;;;;;8.55;7.55;;;;;;;;;;5031686;28;20041;-33
2022/05/19 08:10:27;;;;;;;8.35;7.47;;;;;;;;;;5014913;28;20372;-30
2022/05/19 08:18:18;;;;;;;9.60;8.48;;;;;;;;;;4998782;28;20045;-30
2022/05/19 08:20:49;;;;;;;9.32;8.35;;;;;;;;;;5032500;28;20037;-33
2022/05/19 08:23:20;;;;;;;10.35;9.35;;;;;;;;;;5032302;28;20044;-32
2022/05/19 08:25:47;;;;;;;10.35;9.10;;;;;;;;;;5032414;28;20037;-30
2022/05/19 08:28:16;;;;;;;10.40;9.10;;;;;;;;;;5032107;28;20041;-30
2022/05/19 08:30:44;;;;;;;10.95;9.40;;;;;;;;;;5032213;28;20045;-31
2022/05/19 08:33:10;;;;;;;9.75;8.75;;;;;;;;;;5032072;28;20049;-32
2022/05/19 08:35:36;;;;;;;12.32;10.10;;;;;;;;;;5032541;28;20052;-30
2022/05/19 08:38:03;;;;;;;12.63;11.27;;;;;;;;;;5014742;28;20068;-33
2022/05/19 08:40:33;;;;;;;12.52;11.25;;;;;;;;;;5032138;28;20038;-31
2022/05/19 08:43:00;;;;;;;13.43;12.13;;;;;;;;;;5030677;28;20052;-30
2022/05/19 08:45:32;;;;;;;13.65;12.35;;;;;;;;;;5014183;28;20043;-31
2022/05/19 08:48:03;;;;;;;13.50;12.20;;;;;;;;;;5032284;28;20073;-31
2022/05/19 08:50:49;;;;;;;15.70;12.85;;;;;;;;;;5032648;28;20487;-30
2022/05/19 08:53:16;;;;;;;13.35;12.05;;;;;;;;;;5041895;28;20083;-30
2022/05/19 08:55:46;;;;;;;14.40;12.73;;;;;;;;;;5034214;28;20128;-30
2022/05/19 08:58:19;;;;;;;14.48;12.93;;;;;;;;;;5034261;28;20045;-30
2022/05/19 09:00:56;;;;;;;15.70;11.90;;;;;;;;;;5051522;28;20076;-31
2022/05/19 09:03:34;;;;;;;12.98;11.68;;;;;;;;;;5051755;28;20061;-30
2022/05/19 09:06:03;;;;;;;11.85;10.65;;;;;;;;;;5052061;28;20044;-31
2022/05/19 09:08:48;;;;;;;12.25;10.95;;;;;;;;;;5033905;28;20052;-32
2022/05/19 09:11:16;;;;;;;12.93;11.38;;;;;;;;;;5017156;28;20202;-31
2022/05/19 09:13:51;;;;;;;12.18;10.98;;;;;;;;;;5051118;28;20170;-31
2022/05/19 09:16:46;;;;;;;12.38;11.18;;;;;;;;;;5033167;28;20044;-30
2022/05/19 09:19:12;;;;;;;14.40;11.93;;;;;;;;;;5041395;28;20045;-31
2022/05/19 09:21:41;;;;;;;15.80;12.38;;;;;;;;;;5050686;28;20053;-31
2022/05/19 09:24:07;;;;;;;12.15;10.93;;;;;;;;;;5050964;28;20072;-31
2022/05/19 09:26:54;;;;;;;10.23;9.13;;;;;;;;;;5016403;28;20120;-30
2022/05/19 09:29:20;;;;;;;9.95;8.95;;;;;;;;;;5051010;28;20151;-32
2022/05/19 09:31:53;;;;;;;9.20;8.07;;;;;;;;;;5050638;28;20032;-31
2022/05/19 09:34:22;;;;;;;9.30;8.05;;;;;;;;;;5050965;28;20419;-31
2022/05/19 09:37:05;;;;;;;9.77;8.85;;;;;;;;;;5051046;28;20045;-30
2022/05/19 09:39:34;;;;;;;9.20;8.30;;;;;;;;;;5050952;28;20045;-31
2022/05/19 09:42:08;;;;;;;8.55;7.75;;;;;;;;;;5050944;28;20406;-30
2022/05/19 09:44:35;;;;;;;10.18;9.23;;;;;;;;;;5050817;28;20045;-31
2022/05/19 09:47:14;;;;;;;11.25;10.25;;;;;;;;;;5051281;28;20037;-31
2022/05/19 09:49:44;;;;;;;11.00;10.00;;;;;;;;;;5033157;28;20368;-31
2022/05/19 09:52:16;;;;;;;11.13;8.55;;;;;;;;;;5032846;28;20107;-32
2022/05/19 09:54:45;;;;;;;11.63;9.82;;;;;;;;;;5051004;28;20421;-31
2022/05/19 09:57:14;;;;;;;9.70;8.73;;;;;;;;;;5050773;28;20123;-31
2022/05/19 09:59:47;;;;;;;9.07;8.20;;;;;;;;;;5050399;28;20471;-31
2022/05/19 10:02:26;;;;;;;11.52;9.82;;;;;;;;;;5050231;28;20087;-30
2022/05/19 10:04:55;;;;;;;10.98;9.48;;;;;;;;;;5050730;28;20120;-30
2022/05/19 10:07:23;;;;;;;8.77;7.97;;;;;;;;;;5050722;28;20449;-31
2022/05/19 10:09:50;;;;;;;8.65;7.03;;;;;;;;;;5050693;28;20124;-31
2022/05/19 10:12:37;;;;;;;8.85;8.02;;;;;;;;;;5050520;28;20036;-31
2022/05/19 10:15:05;;;;;;;8.85;8.10;;;;;;;;;;5036036;28;20090;-32
2022/05/19 10:17:41;;;;;;;10.00;9.00;;;;;;;;;;5054174;28;20444;-31
2022/05/19 10:20:21;;;;;;;6.72;6.10;;;;;;;;;;5054325;28;20041;-30
2022/05/19 10:22:54;;;;;;;5.88;5.38;;;;;;;;;;5053809;28;20049;-30
2022/05/19 10:25:25;;;;;;;7.30;6.70;;;;;;;;;;5054322;28;20048;-29
2022/05/19 10:31:04;;;;;;;7.10;6.40;;;;;;;;;;5053489;28;20048;-31
2022/05/19 10:33:42;;;;;;;7.35;6.75;;;;;;;;;;5054070;28;20043;-31
2022/05/19 10:36:21;;;;;;;7.47;6.75;;;;;;;;;;5053943;28;20103;-29
2022/05/19 10:39:06;;;;;;;6.35;5.75;;;;;;;;;;5053982;28;20505;-31
2022/05/19 10:41:51;;;;;;;6.80;6.20;;;;;;;;;;5053744;28;20047;-32
2022/05/19 10:44:36;;;;;;;8.50;7.80;;;;;;;;;;5053420;28;20091;-30
2022/05/19 10:47:05;;;;;;;8.02;6.82;;;;;;;;;;5053813;28;20509;-31
2022/05/19 10:49:50;;;;;;;9.20;8.40;;;;;;;;;;5053955;28;20543;-30
2022/05/19 10:52:36;;;;;;;9.30;8.38;;;;;;;;;;5053578;28;20033;-31
2022/05/19 10:55:08;;;;;;;8.60;7.47;;;;;;;;;;5035846;28;20592;-31
2022/05/19 10:57:45;;;;;;;9.75;7.88;;;;;;;;;;5053301;28;20120;-31
2022/05/19 11:00:32;;;;;;;8.52;7.82;;;;;;;;;;5053236;28;20498;-32
2022/05/19 11:03:07;;;;;;;7.43;6.70;;;;;;;;;;5053403;28;20046;-31
2022/05/19 11:05:59;;;;;;;6.20;5.70;;;;;;;;;;5053207;28;20045;-32
2022/05/19 11:08:41;;;;;;;7.93;7.17;;;;;;;;;;5052162;28;20109;-32
2022/05/19 11:11:07;;;;;;;5.45;4.95;;;;;;;;;;5053297;28;20043;-32
2022/05/19 11:13:36;;;;;;;5.68;5.03;;;;;;;;;;5035470;28;20098;-31
2022/05/19 11:16:02;;;;;;;5.75;5.25;;;;;;;;;;5035118;28;20102;-30
2022/05/19 11:18:34;;;;;;;4.90;4.50;;;;;;;;;;5053204;28;20102;-31
2022/05/19 11:21:07;;;;;;;6.40;5.88;;;;;;;;;;5053168;28;20098;-31
2022/05/19 11:23:52;;;;;;;6.22;5.70;;;;;;;;;;5053242;28;20043;-30
2022/05/19 11:26:29;;;;;;;5.72;5.28;;;;;;;;;;5052952;28;20200;-31
2022/05/19 11:29:14;;;;;;;6.00;5.40;;;;;;;;;;5053578;28;20044;-30
2022/05/19 11:31:59;;;;;;;5.07;4.57;;;;;;;;;;5053253;28;20425;-30
2022/05/19 11:34:33;;;;;;;4.15;3.70;;;;;;;;;;5053373;28;20132;-30
2022/05/19 11:37:10;;;;;;;5.38;4.75;;;;;;;;;;5053125;28;20056;-31
2022/05/19 11:39:55;;;;;;;9.60;4.63;;;;;;;;;;5053215;28;20393;-31
2022/05/19 11:42:35;;;;;;;5.80;4.32;;;;;;;;;;5034973;28;20067;-32
2022/05/19 11:45:03;;;;;;;6.28;4.40;;;;;;;;;;5034857;28;20052;-31
2022/05/19 11:56:03;;;;;;;4.72;3.83;;;;;;;;;;5034796;28;20041;-31
2022/05/19 11:58:34;;;;;;;6.38;4.15;;;;;;;;;;5051383;28;20041;-31
2022/05/19 12:01:06;;;;;;;5.55;4.60;;;;;;;;;;5052623;28;20487;-32
2022/05/19 12:03:51;;;;;;;5.57;4.38;;;;;;;;;;5034333;28;20410;-31
2022/05/19 12:06:21;;;;;;;4.45;4.15;;;;;;;;;;5052475;28;20045;-31
2022/05/19 12:09:02;;;;;;;4.47;4.00;;;;;;;;;;5052458;28;20486;-31
2022/05/19 12:11:50;;;;;;;7.30;3.80;;;;;;;;;;5052480;28;20040;-31
2022/05/19 12:14:27;;;;;;;3.83;3.53;;;;;;;;;;5034596;28;20041;-31
2022/05/19 12:16:55;;;;;;;4.13;3.72;;;;;;;;;;5034181;28;20037;-32
2022/05/19 12:19:40;;;;;;;3.80;3.50;;;;;;;;;;5052168;28;20040;-31
2022/05/19 12:22:09;;;;;;;4.88;3.58;;;;;;;;;;5052229;28;20052;-32
2022/05/19 12:24:42;;;;;;;3.30;3.08;;;;;;;;;;5052297;28;20502;-32
2022/05/19 12:27:14;;;;;;;3.20;2.97;;;;;;;;;;5051592;28;20383;-31
2022/05/19 12:29:43;;;;;;;3.60;3.30;;;;;;;;;;5052278;28;20091;-31
2022/05/19 12:32:36;;;;;;;4.55;3.20;;;;;;;;;;5051474;28;20512;-30
2022/05/19 12:35:08;;;;;;;3.85;3.22;;;;;;;;;;5047792;28;20052;-30
2022/05/19 12:37:39;;;;;;;4.55;3.47;;;;;;;;;;5051584;28;20126;-31
2022/05/19 12:40:11;;;;;;;6.80;3.20;;;;;;;;;;5050302;28;20617;-31
2022/05/19 12:42:40;;;;;;;3.38;3.08;;;;;;;;;;5049726;28;20474;-32
2022/05/19 12:45:17;;;;;;;3.85;3.00;;;;;;;;;;5051116;28;20147;-31
2022/05/19 12:47:57;;;;;;;3.58;3.15;;;;;;;;;;5051619;28;20044;-32
2022/05/19 12:50:25;;;;;;;3.70;3.03;;;;;;;;;;5034300;28;20435;-31
2022/05/19 12:53:10;;;;;;;5.30;3.08;;;;;;;;;;5052334;28;20646;-30
2022/05/19 12:55:36;;;;;;;3.55;3.25;;;;;;;;;;5051152;28;20116;-31
2022/05/19 12:58:21;;;;;;;3.65;2.75;;;;;;;;;;5032835;28;20037;-30
2022/05/19 13:00:48;;;;;;;3.60;3.05;;;;;;;;;;5050069;28;20033;-30
2022/05/19 13:03:17;;;;;;;5.45;3.75;;;;;;;;;;5050226;28;20053;-30
2022/05/19 13:05:56;;;;;;;14.30;6.43;;;;;;;;;;5050168;28;20040;-29
2022/05/19 13:08:22;;;;;;;12.10;6.05;;;;;;;;;;5050627;28;20044;-29
2022/05/19 13:10:50;;;;;;;11.80;5.60;;;;;;;;;;5051600;28;20048;-29
2022/05/19 13:13:28;;;;;;;12.48;6.65;;;;;;;;;;5051536;28;20045;-33
2022/05/19 13:15:56;;;;;;;8.80;6.10;;;;;;;;;;5034030;28;20045;-33
2022/05/19 13:18:26;;;;;;;7.10;6.03;;;;;;;;;;5051169;28;20044;-34
2022/05/19 13:21:02;;;;;;;9.55;5.68;;;;;;;;;;5052129;28;20041;-32
2022/05/19 13:23:29;;;;;;;9.90;6.03;;;;;;;;;;5031334;28;20277;-32
2022/05/19 13:26:12;;;;;;;7.47;6.07;;;;;;;;;;5031415;28;20044;-34
2022/05/19 13:31:25;;;;;;;7.63;6.85;;;;;;;;;;5031824;28;20462;-35
2022/05/19 13:33:52;;;;;;;8.77;7.88;;;;;;;;;;5050860;28;20041;-32
2022/05/19 13:36:29;;;;;;;9.15;8.25;;;;;;;;;;5051289;28;20079;-31
2022/05/19 13:39:05;;;;;;;10.95;8.63;;;;;;;;;;5050577;28;20119;-31
2022/05/19 13:41:32;;;;;;;9.32;8.43;;;;;;;;;;5049929;28;20080;-31
2022/05/19 13:43:58;;;;;;;8.65;7.72;;;;;;;;;;5050212;28;20037;-35
2022/05/19 13:46:25;;;;;;;9.15;7.80;;;;;;;;;;5050106;28;20112;-34
2022/05/19 13:48:51;;;;;;;11.63;7.47;;;;;;;;;;5052222;28;20079;-31
2022/05/19 13:51:20;;;;;;;8.10;7.35;;;;;;;;;;5054586;28;20116;-32
2022/05/19 13:53:53;;;;;;;8.10;7.30;;;;;;;;;;5054636;28;20040;-32
2022/05/19 13:56:22;;;;;;;8.05;6.85;;;;;;;;;;5054711;28;20554;-32
2022/05/19 13:58:50;;;;;;;7.30;6.60;;;;;;;;;;5054118;28;20529;-34
2022/05/19 14:01:25;;;;;;;8.68;7.35;;;;;;;;;;5054821;28;20045;-32
2022/05/19 14:03:53;;;;;;;7.50;6.68;;;;;;;;;;5053445;28;20102;-33
2022/05/19 14:06:21;;;;;;;8.10;7.22;;;;;;;;;;5054593;28;20086;-32
2022/05/19 14:08:48;;;;;;;6.63;5.82;;;;;;;;;;5054010;28;20041;-33
2022/05/19 14:11:16;;;;;;;7.72;6.43;;;;;;;;;;5036661;28;20073;-33
2022/05/19 14:13:44;;;;;;;7.40;6.57;;;;;;;;;;5053742;28;20053;-31
2022/05/19 14:16:18;;;;;;;5.95;5.38;;;;;;;;;;5054300;28;20033;-31
2022/05/19 14:19:04;;;;;;;8.95;6.65;;;;;;;;;;5053907;28;20040;-32
2022/05/19 14:21:34;;;;;;;6.47;5.80;;;;;;;;;;5052237;28;20048;-32
2022/05/19 14:24:06;;;;;;;6.45;5.80;;;;;;;;;;5035076;28;20045;-30
2022/05/19 14:26:39;;;;;;;7.82;5.57;;;;;;;;;;5033491;28;20372;-31
2022/05/19 14:29:06;;;;;;;6.50;5.90;;;;;;;;;;5034885;28;20479;-30
2022/05/19 14:31:35;;;;;;;5.78;5.28;;;;;;;;;;5034967;28;20033;-29
2022/05/19 14:34:13;;;;;;;6.07;5.47;;;;;;;;;;5035196;28;20410;-32
2022/05/19 14:36:51;;;;;;;5.25;4.75;;;;;;;;;;5034266;28;20049;-29
2022/05/19 14:39:17;;;;;;;6.28;5.68;;;;;;;;;;5034519;28;20045;-29
2022/05/19 14:44:33;;;;;;;7.30;6.60;;;;;;;;;;5034440;28;20045;-30
2022/05/19 14:47:25;;;;;;;6.90;5.93;;;;;;;;;;5034076;28;20045;-30
2022/05/19 14:49:53;;;;;;;6.78;6.18;;;;;;;;;;5031037;28;20050;-30
2022/05/19 14:52:23;;;;;;;6.10;5.32;;;;;;;;;;5033573;28;20083;-29
2022/05/19 14:54:50;;;;;;;7.10;5.88;;;;;;;;;;5033297;28;20045;-29
2022/05/19 14:57:23;;;;;;;6.10;5.50;;;;;;;;;;5033481;28;20053;-29
2022/05/19 14:59:54;;;;;;;6.00;5.38;;;;;;;;;;5033290;28;20045;-29
2022/05/19 15:02:20;;;;;;;6.00;5.40;;;;;;;;;;5033559;28;20116;-29
2022/05/19 15:04:47;;;;;;;6.18;5.68;;;;;;;;;;5033673;28;20049;-29
2022/05/19 15:07:24;;;;;;;6.10;5.50;;;;;;;;;;5015815;28;20051;-29
2022/05/19 15:09:50;;;;;;;6.38;5.88;;;;;;;;;;5033629;28;20037;-30
2022/05/19 15:12:16;;;;;;;6.68;5.90;;;;;;;;;;5033625;28;20124;-29